KELY/ELY METAR and TAF weather

Enter ICAO airport designator
Station Type Date Time Source
KELY METAR 2018/04/20 07:53 UTC NOAA

KELY 200753Z AUTO 36012KT 10SM OVC075 05/M05 A2989 RMK AO2 SLP091 T00501050 401000017


Station Type Date Time Source
KELY Decoded METAR 2018/04/20 07:53 UTC NOAA

ELY AIRPORT (YELLAND FIELD), NV, United States (KELY) 39-18N 114-51W 1906M
Apr 20, 2018 - 03:53 AM EDT / 2018.04.20 0753 UTC
Wind: from the N (360 degrees) at 14 MPH (12 KT):0
Visibility: 10 mile(s):0
Sky conditions: overcast
Temperature: 41.0 F (5.0 C)
Dew Point: 23.0 F (-5.0 C)
Relative Humidity: 48%
Pressure (altimeter): 29.89 in. Hg (1012 hPa)
ob: KELY 200753Z AUTO 36012KT 10SM OVC075 05/M05 A2989 RMK AO2 SLP091 T00501050 401000017
cycle: 8

Station Type Date Time Source
KELY TAF 2018/04/20 06:22 UTC NOAA

TAF KELY 200520Z 2006/2106 34010KT P6SM VCSH BKN050
FM201200 33008KT P6SM FEW030 SCT050
FM201700 36020G30KT P6SM SCT050


Example: see airport list